Information station - vue carte · info · télémétrie · météo · trame · statuts · balises · messages · bulletins · naviguer · bouger · Mon compte
Indicatif, nom du navire ou locator: Effacer       
Il est possible de faire une recherche en utilisant des jokers (* ?) après le préfixe. Exemple : OH*
Station APRS KD0GRH - Graphiques d'activité
Map loading...
Commentaire: !SN!
Message Mic-E: In service
Dernier statut: MicroTrak FA v1.42
Position: 38°04.76' N 97°55.06' W - locator EM18AB99VA - Carte - Carte statique
1.4 miles Nord-est Cap 27° de Hutchinson, Reno County, Kansas, United States [?]
3.7 miles Nord Cap 19° de South Hutchinson, Reno County, Kansas, United States
41.4 miles Nord-ouest Cap 310° de Wichita, Sedgwick County, Kansas, United States
55.1 miles Sud Cap 198° de Salina, Saline County, Kansas, United States
Dernière position 2017-09-20 16:28:28 EDT (1h11m Il y a)
2017-09-20 15:28:28 CDT Heure locale Hutchinson, United States [?]
Altitude: 1526 ft
Route: 89°
Vitesse: 9 MPH
Dernière télémétrie: 2017-09-20 16:28:28 EDT (1h11m Il y a) – télémétrie
Ch 1: 474, Ch 2: 625, Ch 3: 0, Ch 4: 0, Ch 5: 0
 1     2     3     4     5     6     7     8 
Appareil: Byonics: TinyTrak3 (tracker)
Dernier chemin: KD0GRH>S8PT7U via WIDE1-1,WIDE2-1,qAR,AC0RL (good)
Positions enregistrées 19286
Stations proches de la position actuelle de KD0GRH - plus de stations
Indicatif distance Dernier entendu : - EDT      Indicatif distance Dernier entendu : - EDT
KDOGRH0.5 miles 306°2017-09-20 17:29:10 N0UNI0.8 miles 195°2017-09-19 15:59:20
W0ZC-10.8 miles 289°2017-09-19 20:37:56 WA0D-21.2 miles 118°2017-09-07 12:03:51
FW06951.5 miles 273°2017-09-20 17:31:37 AC0RL2.6 miles 251°2017-09-20 17:30:48
AC0RL-WX2.6 miles 251°2017-09-20 17:38:14 W0ECO-12.7 miles 110°2017-09-20 17:37:12
KHUT2.9 miles 107°2017-08-24 21:42:11 ICTSVR0OA14.2 miles 13°2017-09-16 21:34:14
DW588314.3 miles 105°2017-09-20 17:26:26 CW442116.3 miles 273°2017-09-20 17:31:36
WA0D-116.3 miles 105°2017-09-16 11:55:47 ICTSVR1PA20.2 miles 44°2017-09-16 22:34:14
W0AAC-1323.8 miles 98°2017-09-05 22:34:18 DW616023.9 miles 94°2017-09-20 17:35:28
DW841425.0 miles 99°2017-09-20 17:38:28 KJ4VCX-725.4 miles 38°2017-09-17 13:24:29
AB0XK-428.0 miles 310°2017-09-20 16:03:54 WE0E-1028.5 miles 121°2017-08-27 21:34:00
Stations qui ont entendu KD0GRH directement par radio –
Indicatif pkts Entendu en premier - EDT Dernier entendu : le plus long (tx => rx) le plus long à - EDT
W0JRT 1 2017-09-17 09:08:53 2017-09-17 09:08:53 EM28PW > EM28OW 2.6 miles 307° 2017-09-17 09:08:53
W0KCK 4 2017-09-17 09:28:52 2017-09-17 16:26:33 EM28SX > EM29QC 11.2 miles 317° 2017-09-17 16:26:33
K0MOO-15 2 2017-09-17 08:36:54 2017-09-17 17:28:35 EM28HN > EM28ML 19.7 miles 102° 2017-09-17 17:28:35
N0PTL 10 2017-09-17 09:06:52 2017-09-17 16:52:34 EM28RW > EM28PX 9.7 miles 273° 2017-09-17 16:36:34
KC0U-1 5 2017-09-17 18:15:06 2017-09-17 18:51:25 EM18PI > EM18WC 38.4 miles 116° 2017-09-17 18:51:25
KE4SLC 19 2017-09-03 14:25:04 2017-09-03 19:17:55 EM18EQ > EM18ES 6.5 miles 356° 2017-09-03 19:17:55
STLPLZ 2 2017-09-17 16:16:34 2017-09-17 16:18:34 EM29SA > EM29QB 6.1 miles 277° 2017-09-17 16:16:34
AC0RL 335 2017-09-01 08:01:51 2017-09-20 16:28:28 EM18DH > EM18AB 20.2 miles 219° 2017-09-17 19:51:40
SMMC 1 2017-09-17 16:28:34 2017-09-17 16:28:34 EM28SX > EM28PX 11.0 miles 275° 2017-09-17 16:28:34
CMHS 2 2017-09-17 09:20:53 2017-09-17 09:22:53 EM29SA > EM28QW 10.4 miles 238° 2017-09-17 09:22:53
MATFLD 14 2017-09-17 06:46:59 2017-09-17 18:55:26 EM18HI > EM18SD 52.4 miles 107° 2017-09-17 06:46:59
LSBRG 11 2017-09-17 08:22:54 2017-09-17 17:37:05 EM28FL > EM28QN 49.7 miles 81° 2017-09-17 08:22:54
AUBURN 1 2017-09-17 17:49:06 2017-09-17 17:49:06 EM28EK > EM28CX 37.4 miles 344° 2017-09-17 17:49:06
WX0U-2 8 2017-09-17 07:38:55 2017-09-17 18:27:25 EM18UJ > EM18VJ 5.5 miles 90° 2017-09-17 07:38:55
KD0IQK-5 6 2017-09-17 08:50:53 2017-09-17 17:06:34 EM28OU > EM28MT 6.4 miles 239° 2017-09-17 17:00:34
EMPRIA 15 2017-09-17 07:58:56 2017-09-17 18:49:26 EM18PI > EM18VJ 27.7 miles 87° 2017-09-17 18:49:26
TNGNXI 1 2017-09-17 17:24:35 2017-09-17 17:24:35 EM28JN > EM29KC 36.9 miles 10° 2017-09-17 17:24:35
MILLER 2 2017-09-17 08:04:55 2017-09-17 17:53:07 EM28DK > EM28AP 21.1 miles 317° 2017-09-17 17:53:07
KD0BTX 5 2017-09-17 09:12:53 2017-09-17 16:40:34 EM28QW > EM28RT 10.9 miles 138° 2017-09-17 09:12:53
KD0YUJ 7 2017-09-17 09:18:52 2017-09-17 16:08:33 EM28RX > EM29UL 36.7 miles 18° 2017-09-17 09:18:52
K0KU 3 2017-09-17 08:30:54 2017-09-17 17:41:06 EM28GM > EM28IW 33.3 miles 18° 2017-09-17 17:41:06
KS0HAM-5 2 2017-09-17 09:02:52 2017-09-17 16:56:34 EM28OV > EM28OV 2.4 miles 243° 2017-09-17 16:56:34
K0RMC 1 2017-09-17 09:32:52 2017-09-17 09:32:52 EM29SB > EM29RA 5.0 miles 237° 2017-09-17 09:32:52
MCPHRS 31 2017-09-03 13:45:04 2017-09-03 19:46:01 EM18BD > EM18EL 25.1 miles 30° 2017-09-03 13:45:04
SALINA 4 2017-09-03 14:23:05 2017-09-03 17:38:41 EM18EQ > EM18EU 10.1 miles 4° 2017-09-03 14:23:05

Seul les paquets de position qui proviennent d'une station originale sont montrés ici. Les statistiques de distances montrent quelques bond long, car certains digipeater ne ce sont pas correctement ajouter au chemin. S’il vous plait vérifiez les paquets bruts.
A propos de ce site
Cette page affiche en temps réel les informations recueillies par le système de suivi automatique de position ( (APRS) Automatic Position Reporting System sur le réseau Internet (APRS-IS). L'APRS est utilisé par les radioamateurs afin de transmettre en temps réel les informations de position, les données météorologiques, la télémétrie et les messages par les ondes radio. Un véhicule équipé d'un récepteur GPS , un émetteur VHF ou HF et un petit appareil appelé tracker transmet son emplacement, la vitesse et le cap dans un petit paquet de données, qui est ensuite reçu par un récepteur à proximité des passerelles internet (iGate) qui envoie le paquet sur Internet. Les systèmes connectés à Internet peuvent envoyer des informations sur l'APRS-IS sans émetteur radio, ou de recueillir et d'afficher des informations transmises partout dans le monde.
FAQ · Blog · Groupe de discussion · Lien vers aprs.fi · Sites AIS · Statut du service · Statistiques de la base de données · Publicité sur aprs.fi · Détails techniques · API · Journal des changements · Modifications futures · Droits et remerciements · Conditions d'utilisation · iPhone/iPad APRS